Terminal Aerodrome Forecast
Issued by NWS Jackson, MS

Home | Current Version | Previous Version | Text Only | Print | Product List | Glossary On
Versions: 1 2 3 4 5 6 7 8 9 10 11 12 13
247
FTUS44 KJAN 200539
TAFJAN
TAF
KJAN 200539Z 2006/2106 12005KT P6SM SKC
     FM201600 18011G20KT P6SM SCT040
     FM210400 16005KT 4SM SHRA BR BKN015 OVC040=

USA.gov is the U.S. government's official web portal to all federal, state and local government web resources and services.